Pittsburgh, PA (15201)

2:52 AM EST on February 13, 2016 (GMT -0500)
Shadyside | | Change Station
CLOSE
Current Station
Personal Weather Station
Location: Pittsburgh, PA
Elevation: 889 ft
Nearby Weather Stations

Elev 889 ft 40.45 °N, 79.94 °W | Updated 10 minutes ago

Overcast
Overcast
17.2 °F
Feels Like 11 °F
N
4.0
Wind Variable Wind from NNW
Gusts 5.0 mph

Today
High -- | Low -- °F
--% Chance of Precip.
Yesterday
High -- | Low -- °F
Precip. -- in
Pressure 30.06 in
Visibility 1.5 miles
Clouds Overcast 1800 ft
Windchill 11 °F
Dew Point 14 °F
Humidity 85%
Rainfall 0.00 in
Snow Depth Not available.
7:16 AM 5:52 PM
Waxing Crescent, 28% visible
SPECI KAGC 130748Z 28014G21KT 1 1/2SM R28/5500VP6000FT -SN OVC018 M09/M13 A3006 RMK AO2 SNB0654 P0000
Pressure 30.06 in
Visibility 1.5 miles
Clouds Overcast 1800 ft
Windchill 11 °F
Dew Point 14 °F
Humidity 85%
Rainfall 0.00 in
Snow Depth Not available.
7:16 AM 5:52 PM
Waxing Crescent, 28% visible
SPECI KAGC 130748Z 28014G21KT 1 1/2SM R28/5500VP6000FT -SN OVC018 M09/M13 A3006 RMK AO2 SNB0654 P0000

10-Day Weather Forecast

Almanac

Astronomy

Feb. 13, 2016 Rise Set
Actual Time
Civil Twilight
Nautical Twilight
Astronomical Twilight
Moon
Length of Visible Light
Length of Day
Tomorrow will be .
, % of the Moon is Illuminated

Today's Extremes

State Highs State Lows

Community

WunderPhotos

Upload Photos

1,892,526 photos uploaded!

WunderBlog® & News

Nearby

Air Quality

  Air Quality AQ Index Pollutant
Not available.

Snow Depth

Station Depth Elevation

Earthquake Activity

City Distance Mag. Time & Date
Minimum magnitude displayed is 2.5.

Coastal Water Temperatures

Place Temperature

Stations

Nearby Weather Stations

Station Location Temp. Windchill Dew Point Humidity Wind Precip. Elev Updated Type
                   

Watches & Warnings

Wind Chill Advisory
Issued: 1:08 AM EST Feb. 13, 2016 – National Weather Service

... Wind Chill Advisory remains in effect until 9 am EST Sunday...

* wind chill... as low as 15 below due to temperatures 4 below to
15 above zero... and winds west 10 to 20 mph with gusts up to
25 mph.

* Impacts... frost bite and hypothermia are possible if
precautions are not taken.